Time;durP1;ratioP1;P1;durP2;ratioP2;P2;SDS_P1;SDS_P2;PMS_P1;PMS_P2;Temp;Humidity;BMP_temperature;BMP_pressure;BME280_temperature;BME280_humidity;BME280_pressure;Samples;Min_cycle;Max_cycle;Signal;HPM_P1;HPM_P2
2022/08/24 00:00:12;;;;;;;4.63;3.90;;;;;;;;;;5054572;28;20840;-91
2022/08/24 00:02:39;;;;;;;5.27;4.77;;;;;;;;;;5055194;28;20449;-91
2022/08/24 00:05:06;;;;;;;4.13;3.83;;;;;;;;;;5055591;28;20955;-90
2022/08/24 00:07:40;;;;;;;4.60;4.30;;;;;;;;;;5074282;28;20447;-90
2022/08/24 00:10:17;;;;;;;4.30;4.00;;;;;;;;;;5061726;28;20511;-90
2022/08/24 00:12:45;;;;;;;6.80;6.10;;;;;;;;;;5060441;28;20468;-90
2022/08/24 00:15:20;;;;;;;6.93;6.33;;;;;;;;;;5076681;28;20970;-91
2022/08/24 00:17:47;;;;;;;6.67;5.90;;;;;;;;;;5039449;28;20516;-90
2022/08/24 00:20:16;;;;;;;5.70;5.20;;;;;;;;;;5049476;28;20567;-90
2022/08/24 00:22:44;;;;;;;6.90;6.40;;;;;;;;;;5056164;28;20460;-90
2022/08/24 00:25:19;;;;;;;6.70;6.17;;;;;;;;;;5041134;28;20757;-89
2022/08/24 00:27:46;;;;;;;5.90;5.30;;;;;;;;;;5076643;28;20494;-90
2022/08/24 00:30:52;;;;;;;5.93;5.43;;;;;;;;;;5030282;28;20546;-90
2022/08/24 00:38:23;;;;;;;;;;;;;;;;;;;;;
2022/08/24 00:43:56;;;;;;;5.03;4.63;;;;;;;;;;5053467;28;20902;-74
2022/08/24 00:46:28;;;;;;;5.57;5.07;;;;;;;;;;5041415;28;20429;-74
2022/08/24 00:49:05;;;;;;;5.03;4.30;;;;;;;;;;5023822;28;20905;-74
2022/08/24 00:51:36;;;;;;;5.73;5.33;;;;;;;;;;5041165;28;20525;-74
2022/08/24 00:54:08;;;;;;;6.90;4.27;;;;;;;;;;5041107;28;20465;-74
2022/08/24 00:56:36;;;;;;;5.07;4.57;;;;;;;;;;5022495;28;20437;-74
2022/08/24 00:59:10;;;;;;;4.23;3.90;;;;;;;;;;5035778;28;20472;-74
2022/08/24 01:01:36;;;;;;;4.33;3.93;;;;;;;;;;5035564;28;20434;-74
2022/08/24 01:04:05;;;;;;;7.30;4.87;;;;;;;;;;5018913;28;20445;-74
2022/08/24 01:06:32;;;;;;;4.50;4.20;;;;;;;;;;5035361;28;20441;-74
2022/08/24 01:08:59;;;;;;;6.70;4.20;;;;;;;;;;5035293;28;20483;-74
2022/08/24 01:11:27;;;;;;;5.33;4.80;;;;;;;;;;5009358;28;20438;-74
2022/08/24 01:14:01;;;;;;;4.50;4.10;;;;;;;;;;5052967;28;20449;-74
2022/08/24 01:19:22;;;;;;;4.30;4.00;;;;;;;;;;5035136;28;20445;-74
2022/08/24 01:22:08;;;;;;;6.90;4.47;;;;;;;;;;5035003;28;20437;-74
2022/08/24 01:24:35;;;;;;;4.60;4.30;;;;;;;;;;5009657;28;20850;-74
2022/08/24 01:27:02;;;;;;;4.90;4.60;;;;;;;;;;5034914;28;20495;-74
2022/08/24 01:29:30;;;;;;;4.00;3.70;;;;;;;;;;5018546;28;20475;-73
2022/08/24 01:31:57;;;;;;;4.73;4.33;;;;;;;;;;5034754;28;20848;-74
2022/08/24 01:34:24;;;;;;;6.50;4.07;;;;;;;;;;5034321;28;20453;-74
2022/08/24 01:36:54;;;;;;;4.40;4.00;;;;;;;;;;5034126;28;20440;-74
2022/08/24 01:39:24;;;;;;;3.83;3.53;;;;;;;;;;5034624;28;20437;-74
2022/08/24 01:41:51;;;;;;;4.83;4.47;;;;;;;;;;5018143;28;20445;-74
2022/08/24 01:44:19;;;;;;;4.17;3.87;;;;;;;;;;5034492;28;21122;-74
2022/08/24 01:46:47;;;;;;;5.13;4.43;;;;;;;;;;5034591;28;20432;-73
2022/08/24 01:49:15;;;;;;;4.80;4.40;;;;;;;;;;5034455;28;20465;-74
2022/08/24 01:51:42;;;;;;;4.80;4.40;;;;;;;;;;5034740;28;20832;-74
2022/08/24 01:54:09;;;;;;;4.50;4.20;;;;;;;;;;5034233;28;20474;-74
2022/08/24 01:56:35;;;;;;;4.50;4.10;;;;;;;;;;5034281;28;20499;-73
2022/08/24 01:59:03;;;;;;;4.73;3.47;;;;;;;;;;5018106;28;20453;-74
2022/08/24 02:01:33;;;;;;;5.60;4.07;;;;;;;;;;5034471;28;20457;-74
2022/08/24 02:04:01;;;;;;;4.60;4.30;;;;;;;;;;5034119;28;20799;-74
2022/08/24 02:06:27;;;;;;;6.53;4.73;;;;;;;;;;5034196;28;20546;-74
2022/08/24 02:08:54;;;;;;;8.20;4.10;;;;;;;;;;5034235;28;20456;-74
2022/08/24 02:11:21;;;;;;;4.50;3.67;;;;;;;;;;5034051;28;20490;-74
2022/08/24 02:13:48;;;;;;;4.80;4.40;;;;;;;;;;5017639;28;20458;-74
2022/08/24 02:16:15;;;;;;;5.00;4.60;;;;;;;;;;5033942;28;20437;-74
2022/08/24 02:18:42;;;;;;;6.80;4.10;;;;;;;;;;5033972;28;20519;-74
2022/08/24 02:21:09;;;;;;;4.57;3.63;;;;;;;;;;5017541;28;20462;-74
2022/08/24 02:23:36;;;;;;;4.53;4.10;;;;;;;;;;5033726;28;21067;-74
2022/08/24 02:26:04;;;;;;;9.00;4.43;;;;;;;;;;5033760;28;20426;-74
2022/08/24 02:28:31;;;;;;;6.37;4.70;;;;;;;;;;5033824;28;20868;-74
2022/08/24 02:30:57;;;;;;;4.90;4.60;;;;;;;;;;5017296;28;20461;-74
2022/08/24 02:33:24;;;;;;;8.37;4.70;;;;;;;;;;5033616;28;21050;-74
2022/08/24 02:35:53;;;;;;;4.60;4.30;;;;;;;;;;5033563;28;20787;-74
2022/08/24 02:38:20;;;;;;;4.33;3.93;;;;;;;;;;5033503;28;20805;-74
2022/08/24 02:40:47;;;;;;;4.73;4.33;;;;;;;;;;5033476;28;20441;-74
2022/08/24 02:43:14;;;;;;;4.80;4.40;;;;;;;;;;5051324;28;20463;-74
2022/08/24 02:45:42;;;;;;;4.80;4.40;;;;;;;;;;5033198;28;20437;-74
2022/08/24 02:48:15;;;;;;;4.33;4.03;;;;;;;;;;5033497;28;20444;-74
2022/08/24 02:50:44;;;;;;;4.40;3.90;;;;;;;;;;5033236;28;20465;-74
2022/08/24 02:53:12;;;;;;;4.90;4.37;;;;;;;;;;5033279;28;20481;-74
2022/08/24 02:55:40;;;;;;;5.20;4.80;;;;;;;;;;5033296;28;20441;-74
2022/08/24 02:58:07;;;;;;;4.10;3.80;;;;;;;;;;5033249;28;20450;-74
2022/08/24 03:00:35;;;;;;;4.93;4.50;;;;;;;;;;5033247;28;20893;-74
2022/08/24 03:03:02;;;;;;;5.77;5.03;;;;;;;;;;5051178;28;20456;-74
2022/08/24 03:05:29;;;;;;;4.90;4.50;;;;;;;;;;5033239;28;20976;-74
2022/08/24 03:07:56;;;;;;;4.80;4.00;;;;;;;;;;5033531;28;20422;-74
2022/08/24 03:10:23;;;;;;;4.40;4.00;;;;;;;;;;5017923;28;20983;-74
2022/08/24 03:12:50;;;;;;;5.70;5.17;;;;;;;;;;5054032;28;20438;-73
2022/08/24 03:15:21;;;;;;;6.23;5.63;;;;;;;;;;5037294;28;20829;-74
2022/08/24 03:17:48;;;;;;;6.93;4.83;;;;;;;;;;5035960;28;20441;-73
2022/08/24 03:20:16;;;;;;;5.70;5.20;;;;;;;;;;5036660;28;20441;-73
2022/08/24 03:22:43;;;;;;;5.80;5.27;;;;;;;;;;5036919;28;20441;-73
2022/08/24 03:25:10;;;;;;;5.27;4.87;;;;;;;;;;5036667;28;20437;-73
2022/08/24 03:27:36;;;;;;;5.20;4.47;;;;;;;;;;5020648;28;20437;-74
2022/08/24 03:30:04;;;;;;;5.03;4.60;;;;;;;;;;5036685;28;20457;-73
2022/08/24 03:32:31;;;;;;;7.20;4.33;;;;;;;;;;5038484;28;20429;-73
2022/08/24 03:34:57;;;;;;;5.60;4.97;;;;;;;;;;5020518;28;20450;-73
2022/08/24 03:37:24;;;;;;;5.20;4.90;;;;;;;;;;5032998;28;20511;-73
2022/08/24 03:39:50;;;;;;;8.80;4.90;;;;;;;;;;5033028;28;20433;-73
2022/08/24 03:42:18;;;;;;;5.90;5.27;;;;;;;;;;5016547;28;20460;-73
2022/08/24 03:44:44;;;;;;;5.97;5.37;;;;;;;;;;5005451;28;20454;-73
2022/08/24 03:47:12;;;;;;;5.77;5.30;;;;;;;;;;5028803;28;20448;-73
2022/08/24 03:49:38;;;;;;;8.23;5.10;;;;;;;;;;5033042;28;20568;-73
2022/08/24 03:52:05;;;;;;;5.17;4.77;;;;;;;;;;5032826;28;20441;-73
2022/08/24 03:54:32;;;;;;;5.60;5.10;;;;;;;;;;5050788;28;20445;-73
2022/08/24 03:56:59;;;;;;;4.93;4.53;;;;;;;;;;5032791;28;20437;-73
2022/08/24 03:59:25;;;;;;;5.10;4.70;;;;;;;;;;5035373;28;20813;-73
2022/08/24 04:01:56;;;;;;;4.60;4.30;;;;;;;;;;5036526;28;20457;-73
2022/08/24 04:04:24;;;;;;;6.20;5.80;;;;;;;;;;5036541;28;20513;-73
2022/08/24 04:06:51;;;;;;;5.73;5.23;;;;;;;;;;5036442;28;20952;-73
2022/08/24 04:09:18;;;;;;;5.20;4.70;;;;;;;;;;5036310;28;20448;-73
2022/08/24 04:11:46;;;;;;;4.40;4.00;;;;;;;;;;5020186;28;20456;-73
2022/08/24 04:14:16;;;;;;;8.50;5.23;;;;;;;;;;5036266;28;20454;-73
2022/08/24 04:16:57;;;;;;;4.80;4.30;;;;;;;;;;5036324;28;20465;-73
2022/08/24 04:19:30;;;;;;;7.53;3.93;;;;;;;;;;5036203;28;20441;-73
2022/08/24 04:21:57;;;;;;;8.13;4.27;;;;;;;;;;5036217;28;20429;-72
2022/08/24 04:24:24;;;;;;;4.57;4.10;;;;;;;;;;5036082;28;20453;-73
2022/08/24 04:26:51;;;;;;;6.40;5.77;;;;;;;;;;5036180;28;20437;-73
2022/08/24 04:29:19;;;;;;;5.53;4.90;;;;;;;;;;5036555;28;20519;-73
2022/08/24 04:31:51;;;;;;;6.03;4.63;;;;;;;;;;5036100;28;20821;-73
2022/08/24 04:34:19;;;;;;;5.40;4.90;;;;;;;;;;5036040;28;20449;-72
2022/08/24 04:36:45;;;;;;;5.93;4.30;;;;;;;;;;5019578;28;20454;-72
2022/08/24 04:39:13;;;;;;;5.13;4.63;;;;;;;;;;5019631;28;20437;-72
2022/08/24 04:41:59;;;;;;;5.30;4.90;;;;;;;;;;5039072;28;20460;-72
2022/08/24 04:44:32;;;;;;;7.40;4.93;;;;;;;;;;5035716;28;20917;-72
2022/08/24 04:47:00;;;;;;;6.60;6.00;;;;;;;;;;5035796;28;20464;-72
2022/08/24 04:49:27;;;;;;;5.47;5.00;;;;;;;;;;5019400;28;20819;-72
2022/08/24 04:51:54;;;;;;;5.63;5.23;;;;;;;;;;5035694;28;20429;-73
2022/08/24 04:54:21;;;;;;;5.67;5.07;;;;;;;;;;5035678;28;20820;-73
2022/08/24 04:56:59;;;;;;;5.67;5.17;;;;;;;;;;5022753;28;20464;-72
2022/08/24 04:59:26;;;;;;;5.43;4.93;;;;;;;;;;5019246;28;20801;-73
2022/08/24 05:01:53;;;;;;;6.27;5.07;;;;;;;;;;5035494;28;20444;-72
2022/08/24 05:04:20;;;;;;;6.43;4.83;;;;;;;;;;5035365;28;20548;-73
2022/08/24 05:06:46;;;;;;;6.90;6.30;;;;;;;;;;5035675;28;20836;-72
2022/08/24 05:09:19;;;;;;;5.23;4.67;;;;;;;;;;5035110;28;20472;-72
2022/08/24 05:11:46;;;;;;;7.63;7.03;;;;;;;;;;5035185;28;20430;-73
2022/08/24 05:14:20;;;;;;;6.17;5.00;;;;;;;;;;5019927;28;20564;-72
2022/08/24 05:16:52;;;;;;;6.43;5.83;;;;;;;;;;5035172;28;20433;-72
2022/08/24 05:19:20;;;;;;;7.83;7.17;;;;;;;;;;5035025;28;20516;-72
2022/08/24 05:21:46;;;;;;;11.10;6.33;;;;;;;;;;5018753;28;20983;-72
2022/08/24 05:24:13;;;;;;;7.80;6.50;;;;;;;;;;5018525;28;20855;-72
2022/08/24 05:26:40;;;;;;;10.77;6.20;;;;;;;;;;5034923;28;20449;-72
2022/08/24 05:29:08;;;;;;;6.57;6.00;;;;;;;;;;5018834;28;20440;-72
2022/08/24 05:31:44;;;;;;;6.80;6.20;;;;;;;;;;5034818;28;20460;-72
2022/08/24 05:34:12;;;;;;;6.40;5.80;;;;;;;;;;5034724;28;20457;-72
2022/08/24 05:36:39;;;;;;;13.67;5.67;;;;;;;;;;5018443;28;21159;-72
2022/08/24 05:39:11;;;;;;;5.57;5.10;;;;;;;;;;5015910;28;20418;-72
2022/08/24 05:41:41;;;;;;;10.30;5.00;;;;;;;;;;5034600;28;20437;-73
2022/08/24 05:44:16;;;;;;;8.13;5.23;;;;;;;;;;5034485;28;20465;-73
2022/08/24 05:46:44;;;;;;;6.73;4.83;;;;;;;;;;5018342;28;20429;-73
2022/08/24 05:49:11;;;;;;;5.20;4.80;;;;;;;;;;5034551;28;20468;-72
2022/08/24 05:51:39;;;;;;;12.90;5.80;;;;;;;;;;5034450;28;20461;-73
2022/08/24 05:54:07;;;;;;;5.80;5.30;;;;;;;;;;5018134;28;20975;-73
2022/08/24 05:57:03;;;;;;;5.80;5.23;;;;;;;;;;5043889;28;20527;-73
2022/08/24 05:59:34;;;;;;;6.67;5.97;;;;;;;;;;5034491;28;20441;-73
2022/08/24 06:02:07;;;;;;;7.80;6.37;;;;;;;;;;5034681;28;20447;-73
2022/08/24 06:04:36;;;;;;;11.63;5.80;;;;;;;;;;5023169;28;20513;-73
2022/08/24 06:07:04;;;;;;;8.13;7.43;;;;;;;;;;5023228;28;20430;-73
2022/08/24 06:09:40;;;;;;;11.37;6.53;;;;;;;;;;5023422;28;21018;-73
2022/08/24 06:12:07;;;;;;;7.47;6.60;;;;;;;;;;5038530;28;20425;-74
2022/08/24 06:14:35;;;;;;;9.57;7.80;;;;;;;;;;5038187;28;20450;-74
2022/08/24 06:17:06;;;;;;;10.60;9.60;;;;;;;;;;5037838;28;20809;-74
2022/08/24 06:19:33;;;;;;;10.30;9.50;;;;;;;;;;5035838;28;20437;-74
2022/08/24 06:22:01;;;;;;;10.60;9.77;;;;;;;;;;5035745;28;20528;-74
2022/08/24 06:27:22;;;;;;;11.50;10.53;;;;;;;;;;5036004;28;20437;-74
2022/08/24 06:30:00;;;;;;;11.47;10.27;;;;;;;;;;5019716;28;20963;-72
2022/08/24 06:32:45;;;;;;;11.63;10.43;;;;;;;;;;5038938;28;20412;-73
2022/08/24 06:35:38;;;;;;;10.90;9.93;;;;;;;;;;5034498;28;20442;-73
2022/08/24 06:38:10;;;;;;;10.60;9.60;;;;;;;;;;5019058;28;20449;-73
2022/08/24 06:40:36;;;;;;;11.67;10.57;;;;;;;;;;5019707;28;20507;-73
2022/08/24 06:43:04;;;;;;;9.97;9.17;;;;;;;;;;5035727;28;20996;-73
2022/08/24 06:45:38;;;;;;;10.47;9.60;;;;;;;;;;5034841;28;20495;-72
2022/08/24 06:48:10;;;;;;;10.03;9.23;;;;;;;;;;5018303;28;20839;-72
2022/08/24 06:50:37;;;;;;;10.60;9.70;;;;;;;;;;5017861;28;20461;-72
2022/08/24 06:53:05;;;;;;;9.60;8.80;;;;;;;;;;5034971;28;20467;-72
2022/08/24 06:55:32;;;;;;;10.97;9.90;;;;;;;;;;5035148;28;20937;-74
2022/08/24 06:57:58;;;;;;;10.83;9.00;;;;;;;;;;5034754;28;20437;-73
2022/08/24 07:00:25;;;;;;;9.57;8.77;;;;;;;;;;5034416;28;20434;-72
2022/08/24 07:02:51;;;;;;;9.63;8.83;;;;;;;;;;5034837;28;20511;-73
2022/08/24 07:05:19;;;;;;;10.07;9.10;;;;;;;;;;5034853;28;20476;-73
2022/08/24 07:07:48;;;;;;;9.53;8.63;;;;;;;;;;5051494;28;20484;-72
2022/08/24 07:10:15;;;;;;;9.60;8.80;;;;;;;;;;5017487;28;20937;-73
2022/08/24 07:12:41;;;;;;;9.60;8.70;;;;;;;;;;5034033;28;20433;-73
2022/08/24 07:15:15;;;;;;;11.20;9.77;;;;;;;;;;5019169;28;20456;-73
2022/08/24 07:17:47;;;;;;;10.47;9.67;;;;;;;;;;5034574;28;20428;-73
2022/08/24 07:20:16;;;;;;;13.07;9.27;;;;;;;;;;5034787;28;20425;-73
2022/08/24 07:23:06;;;;;;;8.60;7.90;;;;;;;;;;5034489;28;20826;-73
2022/08/24 07:25:33;;;;;;;9.00;8.20;;;;;;;;;;5018388;28;20499;-73
2022/08/24 07:28:01;;;;;;;10.27;9.37;;;;;;;;;;5018019;28;20433;-73
2022/08/24 07:30:33;;;;;;;8.43;7.83;;;;;;;;;;5034158;28;20461;-72
2022/08/24 07:33:00;;;;;;;8.87;8.07;;;;;;;;;;5036617;28;20468;-73
2022/08/24 07:35:28;;;;;;;8.60;7.80;;;;;;;;;;5038392;28;20473;-72
2022/08/24 07:37:55;;;;;;;9.53;7.70;;;;;;;;;;5038083;28;20471;-72
2022/08/24 07:40:22;;;;;;;7.07;6.47;;;;;;;;;;5021668;28;20430;-72
2022/08/24 07:42:50;;;;;;;8.27;7.50;;;;;;;;;;5037945;28;21019;-72
2022/08/24 07:45:17;;;;;;;10.03;7.77;;;;;;;;;;5022475;28;20921;-73
2022/08/24 07:47:48;;;;;;;8.33;7.57;;;;;;;;;;5038536;28;20847;-73
2022/08/24 07:50:41;;;;;;;9.33;8.43;;;;;;;;;;5055343;28;20481;-73
2022/08/24 07:53:08;;;;;;;9.10;8.40;;;;;;;;;;5038065;28;20454;-73
2022/08/24 07:55:40;;;;;;;8.80;8.00;;;;;;;;;;5023781;28;20447;-74
2022/08/24 07:58:12;;;;;;;9.80;8.37;;;;;;;;;;5042087;28;20439;-74
2022/08/24 08:00:39;;;;;;;8.53;7.73;;;;;;;;;;5041882;28;20529;-72
2022/08/24 08:03:06;;;;;;;9.10;8.20;;;;;;;;;;5024736;28;20511;-71
2022/08/24 08:05:37;;;;;;;9.40;8.60;;;;;;;;;;5038564;28;20444;-72
2022/08/24 08:08:03;;;;;;;8.93;8.13;;;;;;;;;;5040307;28;20453;-73
2022/08/24 08:10:34;;;;;;;8.80;8.00;;;;;;;;;;5024059;28;20475;-73
2022/08/24 08:13:03;;;;;;;8.80;8.00;;;;;;;;;;5040370;28;20449;-73
2022/08/24 08:15:30;;;;;;;9.80;8.60;;;;;;;;;;5040683;28;20469;-72
2022/08/24 08:18:02;;;;;;;10.00;9.10;;;;;;;;;;5038204;28;20452;-72
2022/08/24 08:20:31;;;;;;;9.93;9.00;;;;;;;;;;5023000;28;20441;-72
2022/08/24 08:25:56;;;;;;;10.60;9.57;;;;;;;;;;5037778;28;20471;-72
2022/08/24 08:28:52;;;;;;;9.10;8.20;;;;;;;;;;5032443;28;20512;-72
2022/08/24 08:31:18;;;;;;;9.10;8.40;;;;;;;;;;5036958;28;20552;-71
2022/08/24 08:33:45;;;;;;;8.90;8.10;;;;;;;;;;5037695;28;20476;-71
2022/08/24 08:36:16;;;;;;;9.13;8.33;;;;;;;;;;5021077;28;20536;-72
2022/08/24 08:38:47;;;;;;;10.07;9.17;;;;;;;;;;5037388;28;20432;-71
2022/08/24 08:41:37;;;;;;;9.03;8.10;;;;;;;;;;5037001;28;20483;-72
2022/08/24 08:44:20;;;;;;;7.70;7.00;;;;;;;;;;4992624;28;20527;-73
2022/08/24 08:47:06;;;;;;;8.70;7.93;;;;;;;;;;5036628;28;21030;-73
2022/08/24 08:49:54;;;;;;;8.60;7.80;;;;;;;;;;5017144;28;20438;-73
2022/08/24 08:52:23;;;;;;;9.77;8.43;;;;;;;;;;5022236;28;20471;-75
2022/08/24 08:55:04;;;;;;;8.47;7.67;;;;;;;;;;5037615;28;20880;-75
2022/08/24 08:57:38;;;;;;;9.47;8.40;;;;;;;;;;5037498;28;20498;-75
2022/08/24 09:00:07;;;;;;;8.50;7.50;;;;;;;;;;5036223;28;20444;-75
2022/08/24 09:02:54;;;;;;;9.00;8.10;;;;;;;;;;5021145;28;20786;-75
2022/08/24 09:05:39;;;;;;;8.47;7.77;;;;;;;;;;5021004;28;20448;-75
2022/08/24 09:08:25;;;;;;;9.20;7.73;;;;;;;;;;5020575;28;20834;-75
2022/08/24 09:10:55;;;;;;;9.00;8.30;;;;;;;;;;5020793;28;20453;-75
2022/08/24 09:13:46;;;;;;;9.50;8.60;;;;;;;;;;5037081;28;20835;-75
2022/08/24 09:16:44;;;;;;;8.13;6.93;;;;;;;;;;5015458;28;20811;-75
2022/08/24 09:19:11;;;;;;;7.70;6.97;;;;;;;;;;5054497;28;21203;-75
2022/08/24 09:21:47;;;;;;;9.80;8.90;;;;;;;;;;5037779;28;20807;-75
2022/08/24 09:24:22;;;;;;;7.57;6.57;;;;;;;;;;5038883;28;20453;-75
2022/08/24 09:26:56;;;;;;;8.10;6.93;;;;;;;;;;5038919;28;20429;-75
2022/08/24 09:29:44;;;;;;;8.50;7.43;;;;;;;;;;5021779;28;20430;-75
2022/08/24 09:32:17;;;;;;;6.30;5.87;;;;;;;;;;4997215;28;20481;-75
2022/08/24 09:34:43;;;;;;;6.43;5.93;;;;;;;;;;5035354;28;21037;-75
2022/08/24 09:37:33;;;;;;;7.53;6.93;;;;;;;;;;5018391;28;20449;-75
2022/08/24 09:40:00;;;;;;;9.70;7.67;;;;;;;;;;5007527;28;20446;-75
2022/08/24 09:43:06;;;;;;;8.20;7.50;;;;;;;;;;5052687;28;20447;-75
2022/08/24 09:45:32;;;;;;;8.60;7.80;;;;;;;;;;4939590;28;20441;-75
2022/08/24 09:48:35;;;;;;;8.87;8.07;;;;;;;;;;4971859;28;20425;-75
2022/08/24 09:51:10;;;;;;;9.77;8.90;;;;;;;;;;4914439;29;20475;-75
2022/08/24 09:54:03;;;;;;;8.57;7.87;;;;;;;;;;4964606;28;20464;-76
2022/08/24 09:56:36;;;;;;;8.03;7.43;;;;;;;;;;4953821;28;20496;-76
2022/08/24 09:59:29;;;;;;;8.00;7.30;;;;;;;;;;4953727;29;20448;-76
2022/08/24 10:02:14;;;;;;;8.57;7.67;;;;;;;;;;4956040;28;20969;-76
2022/08/24 10:04:50;;;;;;;8.90;8.00;;;;;;;;;;4941682;28;20549;-76
2022/08/24 10:07:22;;;;;;;9.03;8.33;;;;;;;;;;4957799;28;20488;-75
2022/08/24 10:09:49;;;;;;;8.93;8.00;;;;;;;;;;4971400;28;20445;-75
2022/08/24 10:12:26;;;;;;;9.37;8.57;;;;;;;;;;4972276;28;20457;-75
2022/08/24 10:15:00;;;;;;;8.70;7.90;;;;;;;;;;4956019;28;20499;-76
2022/08/24 10:17:36;;;;;;;9.30;8.40;;;;;;;;;;5032522;28;21035;-76
2022/08/24 10:20:10;;;;;;;8.73;7.83;;;;;;;;;;5036020;28;20461;-76
2022/08/24 10:22:56;;;;;;;11.63;8.33;;;;;;;;;;5021891;28;20957;-72
2022/08/24 10:25:29;;;;;;;9.57;8.67;;;;;;;;;;5041344;28;20448;-73
2022/08/24 10:28:14;;;;;;;9.37;8.57;;;;;;;;;;5038868;28;20441;-73
2022/08/24 10:30:47;;;;;;;9.87;8.87;;;;;;;;;;5034762;28;20433;-73
2022/08/24 10:33:23;;;;;;;8.83;8.03;;;;;;;;;;5035153;28;20465;-73
2022/08/24 10:36:02;;;;;;;8.70;7.80;;;;;;;;;;5035130;28;20421;-73
2022/08/24 10:41:27;;;;;;;9.03;8.27;;;;;;;;;;5037969;28;20441;-75
2022/08/24 10:43:54;;;;;;;9.07;8.27;;;;;;;;;;5038233;28;21084;-74
2022/08/24 10:46:27;;;;;;;8.30;7.50;;;;;;;;;;5036070;28;20429;-74
2022/08/24 10:49:16;;;;;;;8.33;7.53;;;;;;;;;;5052916;28;20483;-74
2022/08/24 10:52:01;;;;;;;8.70;7.60;;;;;;;;;;5015427;28;20540;-75
2022/08/24 10:54:31;;;;;;;6.90;6.40;;;;;;;;;;5052229;28;20433;-75
2022/08/24 10:57:16;;;;;;;7.40;6.70;;;;;;;;;;5034280;28;20433;-74
2022/08/24 11:00:02;;;;;;;9.53;6.83;;;;;;;;;;5051979;28;20420;-76
2022/08/24 11:02:29;;;;;;;7.30;6.60;;;;;;;;;;5022701;28;20445;-75
2022/08/24 11:04:58;;;;;;;8.33;7.63;;;;;;;;;;5017275;28;20963;-75
2022/08/24 11:07:25;;;;;;;7.93;7.23;;;;;;;;;;5035644;28;20925;-74
2022/08/24 11:09:52;;;;;;;7.40;6.70;;;;;;;;;;5036129;28;20505;-74
2022/08/24 11:12:25;;;;;;;8.03;7.30;;;;;;;;;;5037117;28;20454;-74
2022/08/24 11:14:52;;;;;;;7.53;6.83;;;;;;;;;;5018651;28;20457;-75
2022/08/24 11:17:21;;;;;;;8.43;7.60;;;;;;;;;;5033338;28;21270;-75
2022/08/24 11:19:49;;;;;;;8.07;7.17;;;;;;;;;;5034979;28;20441;-74
2022/08/24 11:22:38;;;;;;;7.60;7.00;;;;;;;;;;5019377;28;20441;-74
2022/08/24 11:25:20;;;;;;;8.77;8.07;;;;;;;;;;5035631;28;20464;-75
2022/08/24 11:27:49;;;;;;;7.30;6.70;;;;;;;;;;5034690;28;20437;-75
2022/08/24 11:30:18;;;;;;;10.13;7.30;;;;;;;;;;5036446;28;20437;-75
2022/08/24 11:33:00;;;;;;;6.73;6.13;;;;;;;;;;5036423;28;20587;-74
2022/08/24 11:35:32;;;;;;;6.07;5.63;;;;;;;;;;5033861;28;20425;-74
2022/08/24 11:38:05;;;;;;;6.63;6.13;;;;;;;;;;5040156;28;20426;-76
2022/08/24 11:40:34;;;;;;;7.60;6.90;;;;;;;;;;5041108;28;20945;-75
2022/08/24 11:43:07;;;;;;;7.47;6.87;;;;;;;;;;5054936;28;20507;-75
2022/08/24 11:45:39;;;;;;;7.20;6.60;;;;;;;;;;5033354;28;20805;-75
2022/08/24 11:48:06;;;;;;;5.20;4.80;;;;;;;;;;5033188;28;20421;-75
2022/08/24 11:50:39;;;;;;;8.20;6.97;;;;;;;;;;5050936;28;20424;-75
2022/08/24 11:53:25;;;;;;;7.00;5.80;;;;;;;;;;5032749;28;20569;-75
2022/08/24 11:55:57;;;;;;;7.87;7.27;;;;;;;;;;5034296;28;20460;-75
2022/08/24 11:58:35;;;;;;;7.07;6.47;;;;;;;;;;5033002;28;20787;-75
2022/08/24 12:01:28;;;;;;;6.23;5.73;;;;;;;;;;5032619;28;20440;-75
2022/08/24 12:03:54;;;;;;;6.67;6.17;;;;;;;;;;5012890;28;20457;-75
2022/08/24 12:06:21;;;;;;;7.60;6.87;;;;;;;;;;5050628;28;20425;-76
2022/08/24 12:09:25;;;;;;;7.00;6.40;;;;;;;;;;5050710;28;20413;-75
2022/08/24 12:12:13;;;;;;;6.63;6.03;;;;;;;;;;4973681;28;20476;-75
2022/08/24 12:14:43;;;;;;;7.00;6.50;;;;;;;;;;5032287;28;21035;-75
2022/08/24 12:17:15;;;;;;;8.00;6.87;;;;;;;;;;5016082;28;20441;-75
2022/08/24 12:19:54;;;;;;;7.20;6.50;;;;;;;;;;5033827;28;20436;-75
2022/08/24 12:22:21;;;;;;;7.17;6.57;;;;;;;;;;5054269;28;20925;-75
2022/08/24 12:24:53;;;;;;;7.40;6.77;;;;;;;;;;5036460;28;20452;-75
2022/08/24 12:27:28;;;;;;;7.17;6.67;;;;;;;;;;5037095;28;20429;-74
2022/08/24 12:30:01;;;;;;;6.77;6.17;;;;;;;;;;5036247;28;20936;-75
2022/08/24 12:32:42;;;;;;;7.90;7.10;;;;;;;;;;5020337;28;20465;-74
2022/08/24 12:35:20;;;;;;;6.50;6.00;;;;;;;;;;5036969;28;20480;-75
2022/08/24 12:37:51;;;;;;;7.00;6.40;;;;;;;;;;5036114;28;20429;-75
2022/08/24 12:40:38;;;;;;;8.30;7.13;;;;;;;;;;5036784;28;20432;-74
2022/08/24 12:43:16;;;;;;;7.40;6.40;;;;;;;;;;5054033;28;20467;-75
2022/08/24 12:45:43;;;;;;;7.60;7.00;;;;;;;;;;5036565;28;20433;-74
2022/08/24 12:48:12;;;;;;;6.60;6.10;;;;;;;;;;5020299;28;20438;-74
2022/08/24 12:50:45;;;;;;;7.27;6.67;;;;;;;;;;5019771;28;20546;-75
2022/08/24 12:53:30;;;;;;;7.97;7.27;;;;;;;;;;5037364;28;21047;-74
2022/08/24 12:56:13;;;;;;;8.13;7.43;;;;;;;;;;5036682;28;20421;-74
2022/08/24 12:58:48;;;;;;;8.77;7.87;;;;;;;;;;5036619;28;20493;-74
2022/08/24 13:01:22;;;;;;;7.63;6.90;;;;;;;;;;5039580;28;20410;-74
2022/08/24 13:04:12;;;;;;;8.00;7.33;;;;;;;;;;5023536;28;20461;-74
2022/08/24 13:06:44;;;;;;;8.90;8.00;;;;;;;;;;5038671;28;20434;-74
2022/08/24 13:09:25;;;;;;;8.33;7.63;;;;;;;;;;5056164;28;20833;-74
2022/08/24 13:11:54;;;;;;;9.83;8.20;;;;;;;;;;5022487;28;20968;-74
2022/08/24 13:14:22;;;;;;;7.77;7.03;;;;;;;;;;5038928;28;20445;-74
2022/08/24 13:16:55;;;;;;;8.93;8.10;;;;;;;;;;5055851;28;20429;-74
2022/08/24 13:19:22;;;;;;;8.43;7.63;;;;;;;;;;5035090;28;20475;-74
2022/08/24 13:21:54;;;;;;;8.60;7.90;;;;;;;;;;5035374;28;20444;-74
2022/08/24 13:24:26;;;;;;;8.37;7.57;;;;;;;;;;5035191;28;20864;-74
2022/08/24 13:26:57;;;;;;;7.83;7.23;;;;;;;;;;5035127;28;20421;-74
2022/08/24 13:29:26;;;;;;;8.10;7.30;;;;;;;;;;5034901;28;20472;-74
2022/08/24 13:31:54;;;;;;;7.80;7.20;;;;;;;;;;5040380;28;20802;-74
2022/08/24 13:34:23;;;;;;;9.47;8.47;;;;;;;;;;5042422;28;20472;-75
2022/08/24 13:36:53;;;;;;;7.93;7.17;;;;;;;;;;5043577;28;20452;-74
2022/08/24 13:39:19;;;;;;;10.23;9.23;;;;;;;;;;5030412;28;20676;-74
2022/08/24 13:41:49;;;;;;;8.83;7.67;;;;;;;;;;5022555;28;20492;-74
2022/08/24 13:44:15;;;;;;;10.20;9.20;;;;;;;;;;5034398;28;20547;-73
2022/08/24 13:47:01;;;;;;;13.57;10.17;;;;;;;;;;5052462;28;20472;-74
2022/08/24 13:49:37;;;;;;;9.40;8.50;;;;;;;;;;5052671;28;20409;-74
2022/08/24 13:52:32;;;;;;;9.30;8.40;;;;;;;;;;5035447;28;20473;-74
2022/08/24 13:55:05;;;;;;;8.80;7.90;;;;;;;;;;4982055;28;20505;-73
2022/08/24 13:57:36;;;;;;;10.50;9.50;;;;;;;;;;5034238;28;21102;-73
2022/08/24 14:00:16;;;;;;;9.57;8.70;;;;;;;;;;5034246;28;20467;-73
2022/08/24 14:02:42;;;;;;;9.80;8.97;;;;;;;;;;5034338;28;20429;-73
2022/08/24 14:05:28;;;;;;;11.93;9.90;;;;;;;;;;5034143;28;20503;-74
2022/08/24 14:08:13;;;;;;;8.80;8.00;;;;;;;;;;5034438;28;20452;-73
2022/08/24 14:10:43;;;;;;;9.93;9.13;;;;;;;;;;5017727;28;20477;-74
2022/08/24 14:13:16;;;;;;;10.40;9.57;;;;;;;;;;5017459;28;20481;-73
2022/08/24 14:18:50;;;;;;;9.40;8.47;;;;;;;;;;5003938;28;20472;-74
2022/08/24 14:21:19;;;;;;;10.50;9.27;;;;;;;;;;5033821;28;20445;-74
2022/08/24 14:24:01;;;;;;;8.97;8.27;;;;;;;;;;5033685;28;20464;-74
2022/08/24 14:26:42;;;;;;;11.20;9.80;;;;;;;;;;5051723;28;20948;-74
2022/08/24 14:29:29;;;;;;;8.70;8.07;;;;;;;;;;5033723;28;20504;-74
2022/08/24 14:31:59;;;;;;;9.80;8.77;;;;;;;;;;5051455;28;20436;-74
2022/08/24 14:34:38;;;;;;;9.33;8.30;;;;;;;;;;5033706;28;20449;-74
2022/08/24 14:37:18;;;;;;;8.90;8.20;;;;;;;;;;5033837;28;20425;-75
2022/08/24 14:40:02;;;;;;;9.30;8.50;;;;;;;;;;5030359;28;20462;-75
2022/08/24 14:42:37;;;;;;;7.70;7.10;;;;;;;;;;5014178;28;20449;-75
2022/08/24 14:45:05;;;;;;;7.90;7.17;;;;;;;;;;5013594;28;20488;-75
2022/08/24 14:47:32;;;;;;;9.00;7.80;;;;;;;;;;5050411;28;21020;-74
2022/08/24 14:50:17;;;;;;;11.00;8.13;;;;;;;;;;5033548;28;20820;-75
2022/08/24 14:52:50;;;;;;;7.87;7.17;;;;;;;;;;5016927;28;20511;-74
2022/08/24 14:55:17;;;;;;;9.67;7.93;;;;;;;;;;5033105;28;20499;-74
2022/08/24 14:57:56;;;;;;;7.83;7.03;;;;;;;;;;5033174;28;20468;-74
2022/08/24 15:00:24;;;;;;;8.67;7.83;;;;;;;;;;5016718;28;20487;-74
2022/08/24 15:02:54;;;;;;;8.57;7.77;;;;;;;;;;5033172;28;20444;-74
2022/08/24 15:05:30;;;;;;;8.37;7.33;;;;;;;;;;5033190;28;20452;-74
2022/08/24 15:08:26;;;;;;;12.13;8.83;;;;;;;;;;5033646;28;20425;-74
2022/08/24 15:11:04;;;;;;;11.17;9.23;;;;;;;;;;5051723;28;20822;-74
2022/08/24 15:13:37;;;;;;;9.87;8.90;;;;;;;;;;5032878;28;20481;-75
2022/08/24 15:16:09;;;;;;;8.07;7.27;;;;;;;;;;5016682;28;20848;-75
2022/08/24 15:18:41;;;;;;;8.50;7.67;;;;;;;;;;5033138;28;20483;-75
2022/08/24 15:21:11;;;;;;;8.93;8.00;;;;;;;;;;5052656;28;20425;-75
2022/08/24 15:23:44;;;;;;;8.80;8.00;;;;;;;;;;5039985;28;20457;-75
2022/08/24 15:26:37;;;;;;;11.00;9.93;;;;;;;;;;5040462;28;20495;-74
2022/08/24 15:29:14;;;;;;;10.80;9.80;;;;;;;;;;5028375;28;20957;-74
2022/08/24 15:31:41;;;;;;;9.23;8.33;;;;;;;;;;5025507;28;20441;-74
2022/08/24 15:34:08;;;;;;;10.00;9.10;;;;;;;;;;5033020;28;20473;-74
2022/08/24 15:36:34;;;;;;;10.00;9.00;;;;;;;;;;5033553;28;20548;-74